Time;durP1;ratioP1;P1;durP2;ratioP2;P2;SDS_P1;SDS_P2;PMS_P1;PMS_P2;Temp;Humidity;BMP_temperature;BMP_pressure;BME280_temperature;BME280_humidity;BME280_pressure;Samples;Min_cycle;Max_cycle;Signal;HPM_P1;HPM_P2
2022/04/22 00:02:18;;;;;;;5.60;5.00;;;;;;;13.85;43.85;96268.72;5088324;28;20872;-71
2022/04/22 00:04:43;;;;;;;7.37;4.63;;;;;;;13.82;44.00;96275.16;5073237;28;20275;-70
2022/04/22 00:07:09;;;;;;;7.20;4.83;;;;;;;13.76;44.23;96269.84;5087616;28;20274;-70
2022/04/22 00:09:34;;;;;;;8.07;5.90;;;;;;;13.78;44.36;96273.94;5090604;28;20652;-69
2022/04/22 00:12:00;;;;;;;5.97;5.37;;;;;;;13.76;44.24;96272.50;5091194;28;20204;-70
2022/04/22 00:14:25;;;;;;;6.70;5.30;;;;;;;13.69;44.23;96274.28;5090683;28;20686;-69
2022/04/22 00:16:51;;;;;;;5.83;4.77;;;;;;;13.61;44.86;96273.44;5085283;28;20181;-70
2022/04/22 00:19:16;;;;;;;7.00;5.20;;;;;;;13.57;44.88;96266.94;5090654;28;20189;-71
2022/04/22 00:21:42;;;;;;;6.00;4.97;;;;;;;13.59;44.44;96259.66;5091236;28;20680;-70
2022/04/22 00:24:08;;;;;;;14.53;5.63;;;;;;;13.57;44.49;96263.47;5084804;28;20194;-70
2022/04/22 00:26:33;;;;;;;5.30;4.80;;;;;;;13.59;44.75;96258.84;5076151;28;20248;-70
2022/04/22 00:28:59;;;;;;;5.90;5.30;;;;;;;13.59;44.87;96256.22;5079004;28;20208;-71
2022/04/22 00:31:24;;;;;;;10.07;6.07;;;;;;;13.59;44.50;96257.03;5088434;28;20272;-71
2022/04/22 00:33:50;;;;;;;7.50;5.50;;;;;;;13.52;44.34;96251.75;5090619;28;20315;-69
2022/04/22 00:36:15;;;;;;;6.13;5.53;;;;;;;13.48;44.82;96249.69;5083800;28;20323;-71
2022/04/22 00:38:41;;;;;;;6.60;5.53;;;;;;;13.41;44.88;96251.44;5094844;28;20181;-71
2022/04/22 00:41:06;;;;;;;5.47;4.93;;;;;;;13.34;45.50;96256.66;5095264;28;20232;-72
2022/04/22 00:43:44;;;;;;;6.20;5.17;;;;;;;13.39;45.02;96248.16;5094872;28;20185;-72
2022/04/22 00:46:10;;;;;;;8.00;6.10;;;;;;;13.40;45.33;96252.47;5089615;28;20214;-71
2022/04/22 00:48:35;;;;;;;6.53;5.77;;;;;;;13.41;45.25;96243.56;5087296;28;20496;-75
2022/04/22 00:51:04;;;;;;;6.93;5.80;;;;;;;13.44;45.12;96240.53;5095106;28;20431;-70
2022/04/22 00:53:29;;;;;;;6.13;5.53;;;;;;;13.37;45.05;96236.00;5093491;28;20187;-71
2022/04/22 00:55:55;;;;;;;9.93;6.47;;;;;;;13.39;45.25;96240.28;5085562;28;20497;-71
2022/04/22 00:58:21;;;;;;;6.27;5.67;;;;;;;13.31;45.27;96235.97;5086224;28;20181;-72
2022/04/22 01:00:46;;;;;;;6.33;5.70;;;;;;;13.28;45.44;96231.91;5091028;28;20229;-73
2022/04/22 01:03:12;;;;;;;7.13;5.90;;;;;;;13.27;45.70;96222.41;5094451;28;20269;-68
2022/04/22 01:11:08;;;;;;;7.30;6.23;;;;;;;13.29;45.89;96232.75;5087322;28;20507;-72
2022/04/22 01:13:33;;;;;;;7.47;6.07;;;;;;;13.29;45.66;96223.03;5085284;28;20431;-73
2022/04/22 01:15:59;;;;;;;6.70;6.00;;;;;;;13.31;45.78;96221.00;5089833;28;20475;-71
2022/04/22 01:18:24;;;;;;;7.57;6.50;;;;;;;13.30;45.66;96219.38;5082233;28;20187;-71
2022/04/22 01:20:50;;;;;;;9.33;6.90;;;;;;;13.20;45.52;96218.94;5082317;28;20220;-73
2022/04/22 01:23:15;;;;;;;6.90;6.20;;;;;;;13.08;45.83;96216.00;5083825;28;20182;-71
2022/04/22 01:25:41;;;;;;;8.43;7.07;;;;;;;13.12;46.07;96205.91;5077692;28;20267;-72
2022/04/22 01:28:08;;;;;;;8.30;6.77;;;;;;;13.10;46.26;96202.69;5085816;28;20182;-70
2022/04/22 01:30:33;;;;;;;8.07;7.20;;;;;;;13.11;46.62;96193.75;5084346;28;20486;-71
2022/04/22 01:32:58;;;;;;;10.00;7.00;;;;;;;13.15;46.61;96187.13;5094311;28;20879;-72
2022/04/22 01:35:24;;;;;;;8.17;7.30;;;;;;;13.16;46.36;96196.63;5085487;28;20632;-71
2022/04/22 01:37:50;;;;;;;7.73;6.93;;;;;;;13.04;46.18;96194.53;5089036;28;20202;-71
2022/04/22 01:40:15;;;;;;;10.50;7.83;;;;;;;13.11;46.19;96188.50;5089854;28;20206;-71
2022/04/22 01:42:42;;;;;;;18.23;11.27;;;;;;;13.15;46.06;96189.75;5092346;28;20178;-73
2022/04/22 01:45:08;;;;;;;17.07;10.90;;;;;;;13.01;46.75;96186.22;5094178;28;20210;-72
2022/04/22 01:47:34;;;;;;;16.27;10.47;;;;;;;13.08;46.64;96179.19;5080827;28;20460;-72
2022/04/22 01:50:00;;;;;;;26.87;12.20;;;;;;;13.10;46.53;96171.13;5087367;28;20451;-73
2022/04/22 01:52:26;;;;;;;16.83;9.73;;;;;;;13.15;46.33;96168.69;5093805;28;21012;-71
2022/04/22 01:54:53;;;;;;;11.83;9.00;;;;;;;13.13;46.70;96176.78;5091847;28;20611;-70
2022/04/22 01:57:20;;;;;;;8.43;7.50;;;;;;;13.14;46.35;96169.69;5092593;28;20428;-72
2022/04/22 01:59:46;;;;;;;11.50;8.30;;;;;;;12.95;46.31;96164.16;5090946;28;20435;-71
2022/04/22 02:02:18;;;;;;;9.90;7.70;;;;;;;12.89;46.69;96164.91;5093599;28;20526;-71
2022/04/22 02:04:44;;;;;;;10.13;8.57;;;;;;;12.86;46.76;96165.28;5092357;28;20463;-71
2022/04/22 02:07:10;;;;;;;10.33;8.33;;;;;;;12.88;46.65;96163.28;5093763;28;20863;-71
2022/04/22 02:09:35;;;;;;;9.07;7.43;;;;;;;12.73;47.29;96161.56;5093025;28;20551;-71
2022/04/22 02:12:01;;;;;;;8.70;7.47;;;;;;;12.66;47.35;96159.91;5093944;28;20182;-70
2022/04/22 02:14:26;;;;;;;9.40;7.50;;;;;;;12.70;46.59;96161.94;5083587;28;20182;-70
2022/04/22 02:16:52;;;;;;;8.63;7.03;;;;;;;12.62;47.04;96158.66;5084721;28;20189;-71
2022/04/22 02:19:18;;;;;;;9.60;7.27;;;;;;;12.49;47.44;96162.81;5091255;28;20268;-71
2022/04/22 02:21:43;;;;;;;8.63;7.73;;;;;;;12.50;47.43;96155.72;5081736;28;20575;-70
2022/04/22 02:24:09;;;;;;;8.10;7.30;;;;;;;12.47;47.08;96161.38;5082712;28;20186;-72
2022/04/22 02:29:19;;;;;;;8.27;7.30;;;;;;;12.30;47.76;96145.88;5091682;28;20272;-70
2022/04/22 02:31:45;;;;;;;10.37;7.83;;;;;;;12.17;47.95;96143.13;5081076;28;20507;-72
2022/04/22 02:34:10;;;;;;;8.97;7.23;;;;;;;12.26;47.74;96136.72;5091358;28;20219;-72
2022/04/22 02:36:36;;;;;;;9.97;7.67;;;;;;;12.03;48.40;96140.38;5092593;28;20456;-69
2022/04/22 02:39:02;;;;;;;7.90;7.10;;;;;;;12.12;48.08;96139.22;5092660;28;20555;-70
2022/04/22 02:46:55;;;;;;;8.40;6.97;;;;;;;11.86;48.83;96128.44;5074617;28;20427;-72
2022/04/22 02:49:21;;;;;;;9.53;8.27;;;;;;;11.82;49.25;96139.34;5091448;28;20489;-71
2022/04/22 02:51:46;;;;;;;9.37;7.83;;;;;;;11.94;49.03;96126.50;5094106;28;20186;-70
2022/04/22 02:54:12;;;;;;;11.87;7.83;;;;;;;11.96;49.31;96116.63;5093930;28;20186;-73
2022/04/22 02:56:38;;;;;;;8.83;7.93;;;;;;;11.89;48.97;96120.19;5078967;28;20237;-72
2022/04/22 02:59:04;;;;;;;11.97;7.63;;;;;;;11.86;48.76;96112.69;5091171;28;20308;-70
2022/04/22 03:01:30;;;;;;;9.90;8.17;;;;;;;11.88;48.86;96118.56;5094919;28;20570;-73
2022/04/22 03:03:55;;;;;;;8.83;7.30;;;;;;;11.86;48.67;96115.31;5098289;28;20507;-73
2022/04/22 03:06:23;;;;;;;9.33;7.97;;;;;;;11.91;48.42;96115.56;5071867;28;20327;-71
2022/04/22 03:08:48;;;;;;;9.77;7.90;;;;;;;11.94;48.86;96113.38;5088432;28;20182;-70
2022/04/22 03:11:21;;;;;;;8.90;8.00;;;;;;;11.80;49.01;96122.13;5088796;28;20427;-70
2022/04/22 03:13:53;;;;;;;10.00;8.20;;;;;;;11.72;48.90;96122.25;5077108;28;20197;-71
2022/04/22 03:16:20;;;;;;;11.77;9.70;;;;;;;11.76;49.32;96119.06;5079860;28;20457;-71
2022/04/22 03:18:45;;;;;;;12.40;9.60;;;;;;;11.55;50.09;96111.97;5082521;28;20423;-72
2022/04/22 03:21:11;;;;;;;11.60;8.97;;;;;;;11.67;49.98;96109.69;5049054;28;20471;-70
2022/04/22 03:23:36;;;;;;;11.23;9.40;;;;;;;11.74;49.61;96115.81;5085702;28;20213;-71
2022/04/22 03:26:02;;;;;;;12.30;8.73;;;;;;;11.80;49.36;96104.59;5091713;28;20288;-72
2022/04/22 03:28:27;;;;;;;11.03;9.43;;;;;;;11.71;49.40;96110.13;5091981;28;20207;-72
2022/04/22 03:30:53;;;;;;;11.60;9.17;;;;;;;11.61;49.37;96099.91;5091802;28;20173;-70
2022/04/22 03:33:19;;;;;;;10.97;8.70;;;;;;;11.62;49.35;96106.78;5091611;28;20258;-70
2022/04/22 03:35:50;;;;;;;12.83;9.10;;;;;;;11.60;49.37;96099.13;5064833;28;20459;-70
2022/04/22 03:38:19;;;;;;;10.80;8.80;;;;;;;11.60;49.21;96103.53;5080246;28;20657;-70
2022/04/22 03:40:48;;;;;;;12.33;8.87;;;;;;;11.58;49.02;96100.31;5065239;28;20486;-71
2022/04/22 03:43:14;;;;;;;12.70;9.60;;;;;;;11.56;49.08;96103.09;5057876;28;20460;-70
2022/04/22 03:45:40;;;;;;;24.17;9.40;;;;;;;11.50;49.20;96098.63;5064467;28;20449;-71
2022/04/22 03:48:09;;;;;;;13.07;9.80;;;;;;;11.41;49.61;96097.91;5071899;28;20507;-70
2022/04/22 03:50:36;;;;;;;12.13;9.40;;;;;;;11.38;49.58;96095.66;5068609;28;20888;-72
2022/04/22 03:53:05;;;;;;;12.63;9.47;;;;;;;11.40;49.74;96101.53;5069546;28;20436;-71
2022/04/22 03:55:30;;;;;;;20.53;9.43;;;;;;;11.26;49.70;96091.88;5071220;28;20445;-71
2022/04/22 03:58:12;;;;;;;12.20;9.70;;;;;;;11.03;50.46;96101.47;5070444;28;20498;-71
2022/04/22 04:00:48;;;;;;;16.77;9.27;;;;;;;11.11;49.99;96100.56;5070781;28;20204;-71
2022/04/22 04:03:18;;;;;;;14.10;8.93;;;;;;;11.19;49.60;96090.00;5074130;28;20810;-73
2022/04/22 04:05:47;;;;;;;13.27;9.57;;;;;;;11.11;49.93;96097.94;5078388;28;20444;-73
2022/04/22 04:08:13;;;;;;;13.63;10.43;;;;;;;11.13;50.44;96098.59;5071183;28;20429;-69
2022/04/22 04:16:27;;;;;;;15.10;10.40;;;;;;;11.01;50.21;96100.03;5049705;28;20538;-71
2022/04/22 04:23:14;;;;;;;13.90;9.53;;;;;;;10.90;50.09;96094.25;5061309;28;20941;-71
2022/04/22 04:24:22;;;;;;;12.33;9.77;;;;;;;10.90;50.54;96094.25;5055349;28;20548;-73
2022/04/22 04:26:47;;;;;;;17.73;10.43;;;;;;;10.58;50.74;96103.28;5048298;28;20900;-73
2022/04/22 04:29:13;;;;;;;13.00;10.70;;;;;;;10.70;50.59;96095.81;5048237;28;20273;-71
2022/04/22 04:31:39;;;;;;;13.33;10.27;;;;;;;10.64;50.85;96093.91;5048356;28;20277;-72
2022/04/22 04:34:04;;;;;;;15.17;10.00;;;;;;;10.65;50.80;96106.00;5031793;28;20471;-72
2022/04/22 04:36:31;;;;;;;13.77;10.17;;;;;;;10.72;50.66;96105.09;5039376;28;20214;-72
2022/04/22 04:38:57;;;;;;;14.70;9.50;;;;;;;10.77;50.54;96104.56;5048073;28;20282;-71
2022/04/22 04:41:23;;;;;;;15.63;10.90;;;;;;;10.61;50.83;96110.78;5053442;28;20464;-70
2022/04/22 04:43:48;;;;;;;12.67;10.00;;;;;;;10.66;50.66;96103.19;5050509;28;20199;-71
2022/04/22 04:46:14;;;;;;;15.90;10.97;;;;;;;10.58;51.31;96105.91;5052559;28;20484;-68
2022/04/22 04:48:39;;;;;;;18.50;10.83;;;;;;;10.77;50.94;96107.19;5071929;28;20186;-71
2022/04/22 04:51:06;;;;;;;17.60;11.40;;;;;;;10.86;51.02;96107.91;5070450;28;20261;-71
2022/04/22 04:53:32;;;;;;;16.03;12.10;;;;;;;10.93;50.52;96103.56;5070831;28;20202;-71
2022/04/22 04:55:57;;;;;;;22.27;12.40;;;;;;;10.85;50.93;96101.03;5078185;28;20448;-72
2022/04/22 04:58:23;;;;;;;15.00;11.70;;;;;;;10.85;50.85;96104.47;5074692;28;20472;-71
2022/04/22 05:00:48;;;;;;;21.77;14.80;;;;;;;10.77;51.11;96112.44;5077528;28;20293;-72
2022/04/22 05:03:14;;;;;;;23.23;13.00;;;;;;;10.85;50.76;96112.31;5069379;28;20182;-71
2022/04/22 05:05:40;;;;;;;21.40;12.53;;;;;;;10.86;50.79;96108.72;5069863;28;20202;-72
2022/04/22 05:08:06;;;;;;;19.70;12.20;;;;;;;10.82;51.07;96099.59;5079128;28;20261;-72
2022/04/22 05:10:32;;;;;;;18.30;12.10;;;;;;;10.83;51.47;96098.63;5069098;28;20193;-70
2022/04/22 05:12:59;;;;;;;18.70;13.83;;;;;;;11.00;50.96;96104.47;5071322;28;20486;-71
2022/04/22 05:15:25;;;;;;;28.20;16.80;;;;;;;10.97;51.14;96096.16;5069289;28;20468;-70
2022/04/22 05:17:52;;;;;;;48.30;30.03;;;;;;;10.96;51.42;96100.59;5077362;28;20450;-69
2022/04/22 05:20:20;;;;;;;31.07;21.37;;;;;;;10.83;51.64;96092.53;5069647;28;20439;-69
2022/04/22 05:22:46;;;;;;;25.83;19.50;;;;;;;11.03;51.38;96098.06;5072802;28;20949;-69
2022/04/22 05:25:13;;;;;;;23.77;16.83;;;;;;;11.13;51.44;96098.59;5072461;28;20487;-71
2022/04/22 05:27:38;;;;;;;20.97;14.93;;;;;;;11.16;50.95;96098.22;5082866;28;20485;-69
2022/04/22 05:32:49;;;;;;;22.53;13.60;;;;;;;11.02;51.56;96097.25;5066749;28;20421;-70
2022/04/22 05:35:16;;;;;;;25.30;14.13;;;;;;;11.03;51.74;96095.44;5065916;28;20982;-69
2022/04/22 05:37:47;;;;;;;27.40;15.83;;;;;;;11.21;51.59;96095.84;5065586;28;20202;-70
2022/04/22 05:40:13;;;;;;;22.33;14.20;;;;;;;11.27;51.66;96102.19;5073567;28;20801;-69
2022/04/22 05:42:39;;;;;;;22.83;14.60;;;;;;;11.41;51.23;96097.91;5084804;28;20432;-70
2022/04/22 05:45:09;;;;;;;25.30;15.63;;;;;;;11.47;52.00;96099.78;5061562;28;20464;-69
2022/04/22 05:47:35;;;;;;;27.17;17.10;;;;;;;11.60;52.17;96099.13;5072509;28;20482;-69
2022/04/22 05:50:01;;;;;;;20.77;15.63;;;;;;;11.79;51.62;96097.69;5063216;28;20552;-72
2022/04/22 05:52:27;;;;;;;24.70;16.10;;;;;;;11.95;51.60;96101.09;5071633;28;20490;-69
2022/04/22 05:54:53;;;;;;;23.77;16.23;;;;;;;12.03;51.25;96093.09;5073488;28;21006;-68
2022/04/22 05:57:19;;;;;;;22.97;16.80;;;;;;;12.14;51.61;96095.22;5073526;28;20208;-71
2022/04/22 05:59:45;;;;;;;26.10;16.07;;;;;;;12.37;51.00;96093.38;5075475;28;20523;-69
2022/04/22 06:02:11;;;;;;;21.30;15.70;;;;;;;12.52;51.24;96101.97;5073459;28;20443;-69
2022/04/22 06:04:36;;;;;;;21.80;16.40;;;;;;;12.62;50.86;96096.38;5075993;28;20182;-69
2022/04/22 06:07:02;;;;;;;23.00;16.70;;;;;;;12.72;50.78;96096.88;5078970;28;20612;-71
2022/04/22 06:12:13;;;;;;;24.20;17.80;;;;;;;13.10;50.11;96081.69;5081317;28;20182;-69
2022/04/22 06:14:39;;;;;;;24.90;17.50;;;;;;;13.29;49.64;96086.22;5072900;28;20923;-69
2022/04/22 06:17:05;;;;;;;26.40;18.73;;;;;;;13.40;49.17;96086.66;5073497;28;20436;-69
2022/04/22 06:19:31;;;;;;;24.50;18.30;;;;;;;13.54;49.10;96077.81;5072604;28;20802;-70
2022/04/22 06:21:57;;;;;;;22.53;17.93;;;;;;;13.69;48.59;96076.84;5069136;28;20228;-69
2022/04/22 06:24:22;;;;;;;23.57;18.93;;;;;;;13.79;48.04;96077.25;5069567;28;20201;-70
2022/04/22 06:26:47;;;;;;;27.90;19.37;;;;;;;13.91;47.92;96080.91;5069434;28;20187;-70
2022/04/22 06:29:13;;;;;;;22.23;18.30;;;;;;;14.02;47.34;96078.69;5071545;28;20190;-70
2022/04/22 06:31:39;;;;;;;28.90;19.90;;;;;;;14.01;47.23;96071.81;5075879;28;20239;-69
2022/04/22 06:34:05;;;;;;;25.60;19.43;;;;;;;14.15;47.28;96070.81;5085294;28;20192;-70
2022/04/22 06:36:32;;;;;;;24.57;20.40;;;;;;;14.32;46.77;96079.09;5081564;28;20465;-70
2022/04/22 06:38:58;;;;;;;24.67;19.60;;;;;;;14.43;46.41;96088.22;5072517;28;20205;-71
2022/04/22 06:46:57;;;;;;;30.10;21.03;;;;;;;14.71;45.71;96066.91;5070658;28;20439;-72
2022/04/22 06:49:25;;;;;;;26.03;20.17;;;;;;;14.79;44.94;96052.72;5074240;28;20429;-72
2022/04/22 06:51:51;;;;;;;25.10;19.90;;;;;;;14.88;44.86;96062.00;5073246;28;20444;-72
2022/04/22 06:54:17;;;;;;;29.37;21.73;;;;;;;14.89;44.83;96062.84;5072164;28;20805;-70
2022/04/22 06:56:44;;;;;;;25.30;20.40;;;;;;;14.93;44.52;96060.59;5070863;28;20205;-72
2022/04/22 06:59:10;;;;;;;60.23;19.57;;;;;;;15.04;44.66;96065.22;5072624;28;20190;-70
2022/04/22 07:01:36;;;;;;;24.77;19.40;;;;;;;15.16;44.51;96062.75;5072396;28;22212;-71
2022/04/22 07:04:02;;;;;;;25.50;19.40;;;;;;;15.29;44.56;96057.41;5071950;28;20869;-71
2022/04/22 07:06:27;;;;;;;26.10;20.40;;;;;;;15.34;44.20;96054.13;5071616;28;20480;-71
2022/04/22 07:08:53;;;;;;;27.77;21.23;;;;;;;15.40;43.67;96053.28;5079323;28;20197;-70
2022/04/22 07:11:26;;;;;;;24.50;19.50;;;;;;;15.37;43.79;96059.00;5072224;28;20186;-70
2022/04/22 07:13:56;;;;;;;24.57;20.30;;;;;;;15.47;43.67;96051.44;5071918;28;20673;-72
2022/04/22 07:16:22;;;;;;;24.33;19.90;;;;;;;15.56;43.28;96056.47;5077209;28;20460;-72
2022/04/22 07:18:48;;;;;;;26.57;19.80;;;;;;;15.62;43.17;96060.91;5065528;28;20501;-70
2022/04/22 07:21:14;;;;;;;26.33;20.83;;;;;;;15.79;42.96;96051.44;5064632;28;20199;-70
2022/04/22 07:23:40;;;;;;;24.90;18.97;;;;;;;15.93;42.83;96052.19;5071760;28;20197;-71
2022/04/22 07:26:10;;;;;;;26.20;19.83;;;;;;;16.03;42.57;96046.41;5063383;28;20479;-71
2022/04/22 07:28:37;;;;;;;23.90;19.60;;;;;;;16.19;42.19;96042.41;5067900;28;20475;-69
2022/04/22 07:31:03;;;;;;;27.53;20.77;;;;;;;16.33;41.72;96045.78;5061988;28;20493;-72
2022/04/22 07:33:30;;;;;;;26.93;20.37;;;;;;;16.45;41.47;96048.50;5069259;28;20439;-71
2022/04/22 07:35:55;;;;;;;26.60;21.07;;;;;;;16.44;41.46;96052.19;5075719;28;20448;-70
2022/04/22 07:38:21;;;;;;;24.30;19.77;;;;;;;16.43;41.40;96046.06;5074161;28;20473;-71
2022/04/22 07:40:49;;;;;;;21.50;18.07;;;;;;;16.51;40.76;96050.28;5069460;28;20814;-70
2022/04/22 07:48:45;;;;;;;24.07;19.60;;;;;;;16.68;41.18;96047.06;5063408;28;20429;-71
2022/04/22 07:51:10;;;;;;;23.27;19.60;;;;;;;16.89;40.78;96045.81;5070257;28;20432;-71
2022/04/22 07:53:36;;;;;;;26.40;21.10;;;;;;;17.09;40.29;96042.19;5077204;28;20194;-68
2022/04/22 07:56:05;;;;;;;26.80;20.80;;;;;;;17.16;40.68;96042.88;5070824;28;20210;-69
2022/04/22 07:58:31;;;;;;;25.27;19.03;;;;;;;17.46;39.95;96042.13;5071397;28;20637;-71
2022/04/22 08:00:57;;;;;;;30.23;21.90;;;;;;;17.34;39.22;96039.41;5075489;28;20585;-72
2022/04/22 08:03:22;;;;;;;23.83;19.83;;;;;;;17.27;39.06;96034.19;5071564;28;20468;-69
2022/04/22 08:05:48;;;;;;;23.30;20.33;;;;;;;17.35;39.81;96030.44;5071110;28;20229;-70
2022/04/22 08:08:13;;;;;;;29.13;20.30;;;;;;;17.46;39.25;96028.88;5071147;28;20269;-70
2022/04/22 08:10:39;;;;;;;24.40;19.70;;;;;;;17.48;39.37;96032.91;5070668;28;20170;-72
2022/04/22 08:13:05;;;;;;;23.27;19.23;;;;;;;17.58;39.41;96027.06;5071215;28;20191;-70
2022/04/22 08:15:35;;;;;;;22.77;19.07;;;;;;;17.71;38.69;96033.22;5052920;28;20206;-70
2022/04/22 08:18:04;;;;;;;23.80;19.60;;;;;;;17.89;38.65;96035.81;5071055;28;20429;-71
2022/04/22 08:20:33;;;;;;;25.47;21.40;;;;;;;17.96;38.37;96030.38;5071312;28;20475;-69
2022/04/22 08:23:03;;;;;;;31.07;19.93;;;;;;;18.02;38.30;96029.50;5071131;28;20938;-70
2022/04/22 08:25:28;;;;;;;25.60;21.53;;;;;;;18.18;38.15;96022.72;5070647;28;20463;-71
2022/04/22 08:27:54;;;;;;;23.93;19.90;;;;;;;18.28;37.66;96019.50;5069416;28;20924;-70
2022/04/22 08:30:20;;;;;;;22.67;18.80;;;;;;;18.38;37.58;96025.03;5067476;28;20190;-70
2022/04/22 08:32:45;;;;;;;25.20;19.33;;;;;;;18.51;37.07;96018.69;5071059;28;20193;-69
2022/04/22 08:35:11;;;;;;;22.10;19.57;;;;;;;18.67;37.01;96016.34;5070705;28;20199;-72
2022/04/22 08:37:37;;;;;;;22.10;18.90;;;;;;;18.88;36.86;96010.47;5078501;28;20194;-71
2022/04/22 08:40:07;;;;;;;23.20;18.40;;;;;;;18.93;36.91;96009.75;5070888;28;20428;-72
2022/04/22 08:42:35;;;;;;;23.63;18.77;;;;;;;19.21;36.60;96005.56;5070040;28;20463;-69
2022/04/22 08:45:01;;;;;;;21.17;18.37;;;;;;;19.41;36.40;96004.31;5070864;28;20836;-70
2022/04/22 08:50:16;;;;;;;21.40;18.87;;;;;;;19.39;35.78;96001.91;5069405;28;20830;-70
2022/04/22 08:52:43;;;;;;;19.97;17.83;;;;;;;19.63;35.99;96007.88;5069382;28;20424;-71
2022/04/22 08:55:09;;;;;;;21.53;17.20;;;;;;;19.82;35.44;96004.19;5070597;28;20550;-71
2022/04/22 08:57:35;;;;;;;21.13;17.13;;;;;;;19.99;34.76;96006.88;5072045;28;20425;-71
2022/04/22 09:00:03;;;;;;;20.53;16.13;;;;;;;20.08;34.51;95995.63;5076621;28;20481;-71
2022/04/22 09:02:29;;;;;;;21.40;16.70;;;;;;;20.34;34.90;95997.88;5074128;28;20202;-71
2022/04/22 09:04:55;;;;;;;23.70;18.00;;;;;;;20.49;34.06;96002.59;5074487;28;20444;-72
2022/04/22 09:07:25;;;;;;;21.00;17.77;;;;;;;20.44;33.83;95997.19;5074401;28;20555;-73
2022/04/22 09:09:50;;;;;;;18.43;16.50;;;;;;;20.60;33.43;95991.03;5073877;28;20182;-72
2022/04/22 09:12:19;;;;;;;18.60;15.40;;;;;;;20.69;33.24;95992.22;5074738;28;20430;-73
2022/04/22 09:14:46;;;;;;;19.73;16.10;;;;;;;20.34;33.31;95992.53;5066772;28;20209;-72
2022/04/22 09:17:22;;;;;;;18.57;16.50;;;;;;;20.55;33.25;95988.28;5074647;28;20493;-72
2022/04/22 09:19:47;;;;;;;24.00;17.60;;;;;;;20.74;33.30;95982.69;5065930;28;20413;-70
2022/04/22 09:22:39;;;;;;;19.60;15.80;;;;;;;20.89;33.17;95980.25;5072850;28;20992;-70
2022/04/22 09:25:05;;;;;;;20.17;17.50;;;;;;;20.96;32.30;95972.88;5074192;28;20222;-70
2022/04/22 09:27:41;;;;;;;18.83;16.83;;;;;;;21.18;33.24;95966.69;5073342;28;20431;-70
2022/04/22 09:30:09;;;;;;;18.30;15.53;;;;;;;21.36;32.87;95972.75;5072590;28;20185;-69
2022/04/22 09:32:37;;;;;;;20.83;17.83;;;;;;;21.52;32.03;95969.19;5073714;28;20814;-72
2022/04/22 09:35:16;;;;;;;21.20;16.77;;;;;;;21.46;31.67;95971.00;5074254;28;20456;-71
2022/04/22 09:43:42;;;;;;;18.53;15.23;;;;;;;21.14;33.03;95965.63;5072014;28;20432;-70
2022/04/22 09:46:19;;;;;;;18.70;16.80;;;;;;;21.24;32.56;95959.56;5073805;28;20451;-71
2022/04/22 09:48:45;;;;;;;16.43;14.77;;;;;;;21.45;32.25;95965.91;5064957;28;20429;-72
2022/04/22 09:51:26;;;;;;;17.47;15.67;;;;;;;20.97;32.37;95955.06;5070180;28;20451;-70
2022/04/22 09:54:02;;;;;;;19.67;15.37;;;;;;;21.23;32.87;95961.44;5066945;28;20183;-70
2022/04/22 09:56:29;;;;;;;17.30;15.07;;;;;;;21.35;32.13;95969.31;5075924;28;20445;-71
2022/04/22 09:58:55;;;;;;;17.27;15.33;;;;;;;21.41;31.97;95962.16;5074119;28;20440;-70
2022/04/22 10:01:23;;;;;;;26.63;15.87;;;;;;;21.47;32.30;95956.63;5074139;28;20470;-70
2022/04/22 10:03:49;;;;;;;25.83;15.83;;;;;;;21.70;31.79;95961.91;5077689;28;20514;-71
2022/04/22 10:06:15;;;;;;;18.17;15.93;;;;;;;21.83;32.55;95952.69;5084939;28;20542;-71
2022/04/22 10:08:43;;;;;;;18.07;15.43;;;;;;;22.06;31.89;95954.16;5064703;28;20190;-71
2022/04/22 10:11:10;;;;;;;18.23;15.57;;;;;;;22.09;31.44;95953.66;5064591;28;20420;-70
2022/04/22 10:13:44;;;;;;;19.17;13.83;;;;;;;22.06;31.52;95965.66;5081386;28;20435;-71
2022/04/22 10:16:11;;;;;;;16.60;14.83;;;;;;;22.37;31.38;95952.50;5073238;28;20510;-71
2022/04/22 10:18:38;;;;;;;17.70;15.10;;;;;;;22.44;31.11;95957.63;5071834;28;20424;-70
2022/04/22 10:21:03;;;;;;;22.80;15.97;;;;;;;22.18;31.08;95948.66;5079259;28;20468;-70
2022/04/22 10:23:30;;;;;;;20.73;15.20;;;;;;;21.87;31.48;95957.25;5074122;28;20493;-70
2022/04/22 10:25:56;;;;;;;17.40;15.33;;;;;;;21.67;32.14;95963.22;5073369;28;20203;-70
2022/04/22 10:28:23;;;;;;;16.90;14.70;;;;;;;21.71;31.98;95952.84;5072966;28;20428;-72
2022/04/22 10:30:50;;;;;;;17.40;15.57;;;;;;;21.98;31.95;95946.66;5054828;28;20507;-70
2022/04/22 10:33:15;;;;;;;18.93;15.40;;;;;;;22.05;31.95;95949.91;5071368;28;20486;-69
2022/04/22 10:35:43;;;;;;;15.80;14.00;;;;;;;22.22;31.49;95947.88;5065033;28;20476;-70
2022/04/22 10:38:38;;;;;;;15.93;14.23;;;;;;;22.48;30.82;95953.38;5072593;28;20186;-71
2022/04/22 10:41:12;;;;;;;17.77;14.27;;;;;;;22.43;31.24;95945.34;5067187;28;20464;-71
2022/04/22 10:43:39;;;;;;;16.53;14.47;;;;;;;22.76;30.75;95939.88;5071509;28;20512;-70
2022/04/22 10:49:21;;;;;;;15.23;13.73;;;;;;;23.10;30.32;95931.47;5066438;28;20420;-71
2022/04/22 10:52:02;;;;;;;15.63;12.70;;;;;;;23.40;30.76;95932.59;5070973;28;20445;-71
2022/04/22 10:54:52;;;;;;;14.90;13.30;;;;;;;23.27;29.61;95929.38;5071811;28;20436;-72
2022/04/22 10:57:21;;;;;;;14.30;12.87;;;;;;;23.39;29.74;95931.81;5072367;28;20451;-70
2022/04/22 11:00:06;;;;;;;14.20;12.70;;;;;;;23.40;29.50;95928.06;5074347;28;20947;-71
2022/04/22 11:02:34;;;;;;;18.27;14.23;;;;;;;23.19;29.14;95931.75;5071725;28;20471;-71
2022/04/22 11:07:53;;;;;;;14.43;12.27;;;;;;;23.40;29.53;95921.91;5064354;28;20432;-71
2022/04/22 11:10:19;;;;;;;17.00;12.93;;;;;;;23.08;29.42;95928.25;5070079;28;20428;-70
2022/04/22 11:12:54;;;;;;;15.87;14.17;;;;;;;23.18;29.79;95922.94;5072310;28;20433;-71
2022/04/22 11:15:46;;;;;;;14.67;13.17;;;;;;;23.31;29.42;95913.66;5071686;28;20454;-71
2022/04/22 11:18:16;;;;;;;13.17;11.77;;;;;;;23.14;29.84;95919.16;5072088;28;20907;-72
2022/04/22 11:20:50;;;;;;;13.53;11.90;;;;;;;23.06;30.30;95915.16;5075791;28;20464;-71
2022/04/22 11:23:16;;;;;;;15.23;13.57;;;;;;;23.25;30.13;95915.47;5077627;28;20523;-75
2022/04/22 11:25:46;;;;;;;15.20;13.60;;;;;;;23.16;29.68;95928.56;5064049;28;20891;-72
2022/04/22 11:28:12;;;;;;;18.53;14.33;;;;;;;23.07;30.09;95921.31;5071788;28;20182;-71
2022/04/22 11:30:39;;;;;;;16.43;14.80;;;;;;;23.17;30.19;95922.13;5071301;28;20423;-72
2022/04/22 11:33:22;;;;;;;14.87;13.40;;;;;;;23.30;29.96;95925.41;5072532;28;20997;-70
2022/04/22 11:35:53;;;;;;;15.63;13.13;;;;;;;23.44;29.91;95921.09;5065401;28;20448;-70
2022/04/22 11:38:20;;;;;;;17.47;13.40;;;;;;;23.68;29.39;95917.13;5072238;28;20436;-71
2022/04/22 11:40:48;;;;;;;15.67;12.33;;;;;;;24.02;29.78;95921.94;5072740;28;20464;-71
2022/04/22 11:43:18;;;;;;;15.10;12.40;;;;;;;24.28;29.34;95912.00;5071464;28;20439;-71
2022/04/22 11:45:50;;;;;;;13.33;12.03;;;;;;;24.42;28.12;95912.22;5064050;28;20482;-71
2022/04/22 11:48:25;;;;;;;14.47;13.17;;;;;;;24.34;28.40;95905.53;5074054;28;20439;-72
2022/04/22 11:50:52;;;;;;;13.90;12.50;;;;;;;24.54;28.09;95893.16;5069217;28;20458;-71
2022/04/22 11:53:20;;;;;;;14.17;12.43;;;;;;;24.74;27.99;95896.84;5072603;28;20428;-71
2022/04/22 11:55:47;;;;;;;18.13;14.03;;;;;;;24.81;27.65;95897.38;5070067;28;20444;-72
2022/04/22 11:58:22;;;;;;;14.30;12.37;;;;;;;24.57;27.85;95895.31;5073900;28;20440;-72
2022/04/22 12:06:18;;;;;;;14.33;12.87;;;;;;;24.64;28.14;95892.31;5079684;28;20444;-70
2022/04/22 12:09:15;;;;;;;12.63;11.37;;;;;;;24.63;28.09;95891.53;5070690;28;20435;-72
2022/04/22 12:11:43;;;;;;;15.17;13.57;;;;;;;24.68;28.37;95891.50;5060471;28;20478;-70
2022/04/22 12:14:21;;;;;;;16.50;12.93;;;;;;;24.77;27.74;95899.00;5068551;28;20521;-70
2022/04/22 12:16:54;;;;;;;14.20;12.60;;;;;;;24.89;27.76;95896.78;5068824;28;20487;-70
2022/04/22 12:19:19;;;;;;;18.50;12.37;;;;;;;24.78;27.42;95893.34;5068026;28;20441;-70
2022/04/22 12:21:45;;;;;;;13.47;11.37;;;;;;;24.86;27.49;95886.63;5052683;28;20534;-70
2022/04/22 12:24:15;;;;;;;12.60;11.27;;;;;;;25.03;27.11;95888.13;5051186;28;20190;-69